sensor_id;sensor_type;location;lat;lon;timestamp;temperature;humidity
65036;DHT22;51603;49.300;8.880;2022-10-22T00:01:11;13.60;99.90
65036;DHT22;51603;49.300;8.880;2022-10-22T00:03:36;13.60;99.90
65036;DHT22;51603;49.300;8.880;2022-10-22T00:06:02;13.60;99.90
65036;DHT22;51603;49.300;8.880;2022-10-22T00:08:28;13.60;99.90
65036;DHT22;51603;49.300;8.880;2022-10-22T00:10:53;13.60;99.90
65036;DHT22;51603;49.300;8.880;2022-10-22T00:13:19;13.60;99.90
65036;DHT22;51603;49.300;8.880;2022-10-22T00:15:45;13.50;99.90
65036;DHT22;51603;49.300;8.880;2022-10-22T00:18:10;13.50;99.90
65036;DHT22;51603;49.300;8.880;2022-10-22T00:20:36;13.50;99.90
65036;DHT22;51603;49.300;8.880;2022-10-22T00:23:01;13.50;99.90
65036;DHT22;51603;49.300;8.880;2022-10-22T00:25:27;13.50;99.90
65036;DHT22;51603;49.300;8.880;2022-10-22T00:27:53;13.50;99.90
65036;DHT22;51603;49.300;8.880;2022-10-22T00:30:18;13.50;99.90
65036;DHT22;51603;49.300;8.880;2022-10-22T00:32:44;13.50;99.90
65036;DHT22;51603;49.300;8.880;2022-10-22T00:35:09;13.40;99.90
65036;DHT22;51603;49.300;8.880;2022-10-22T00:37:35;13.40;99.90
65036;DHT22;51603;49.300;8.880;2022-10-22T00:40:01;13.50;99.90
65036;DHT22;51603;49.300;8.880;2022-10-22T00:42:27;13.50;99.90
65036;DHT22;51603;49.300;8.880;2022-10-22T00:45:15;13.50;99.90
65036;DHT22;51603;49.300;8.880;2022-10-22T00:47:49;13.50;99.90
65036;DHT22;51603;49.300;8.880;2022-10-22T00:50:38;13.50;99.90
65036;DHT22;51603;49.300;8.880;2022-10-22T00:53:07;13.50;99.90
65036;DHT22;51603;49.300;8.880;2022-10-22T00:55:34;13.40;99.90
65036;DHT22;51603;49.300;8.880;2022-10-22T00:58:00;13.40;99.90
65036;DHT22;51603;49.300;8.880;2022-10-22T01:03:48;13.40;99.90
65036;DHT22;51603;49.300;8.880;2022-10-22T01:06:32;13.30;99.90
65036;DHT22;51603;49.300;8.880;2022-10-22T01:09:29;13.30;99.90
65036;DHT22;51603;49.300;8.880;2022-10-22T01:14:34;13.20;99.90
65036;DHT22;51603;49.300;8.880;2022-10-22T01:17:13;13.20;99.90
65036;DHT22;51603;49.300;8.880;2022-10-22T01:20:09;13.20;99.90
65036;DHT22;51603;49.300;8.880;2022-10-22T01:22:43;13.20;99.90
65036;DHT22;51603;49.300;8.880;2022-10-22T01:25:24;13.20;99.90
65036;DHT22;51603;49.300;8.880;2022-10-22T01:28:05;13.20;99.90
65036;DHT22;51603;49.300;8.880;2022-10-22T01:30:33;13.20;99.90
65036;DHT22;51603;49.300;8.880;2022-10-22T01:33:03;13.10;99.90
65036;DHT22;51603;49.300;8.880;2022-10-22T01:35:41;13.10;99.90
65036;DHT22;51603;49.300;8.880;2022-10-22T01:38:12;13.10;99.90
65036;DHT22;51603;49.300;8.880;2022-10-22T01:40:39;13.10;99.90
65036;DHT22;51603;49.300;8.880;2022-10-22T01:43:07;13.10;99.90
65036;DHT22;51603;49.300;8.880;2022-10-22T01:45:44;13.10;99.90
65036;DHT22;51603;49.300;8.880;2022-10-22T01:51:43;13.10;99.90
65036;DHT22;51603;49.300;8.880;2022-10-22T01:54:34;13.00;99.90
65036;DHT22;51603;49.300;8.880;2022-10-22T02:00:10;13.10;99.90
65036;DHT22;51603;49.300;8.880;2022-10-22T02:02:45;13.10;99.90
65036;DHT22;51603;49.300;8.880;2022-10-22T02:05:36;13.10;99.90
65036;DHT22;51603;49.300;8.880;2022-10-22T02:08:12;13.10;99.90
65036;DHT22;51603;49.300;8.880;2022-10-22T02:10:40;13.10;99.90
65036;DHT22;51603;49.300;8.880;2022-10-22T02:13:15;13.00;99.90
65036;DHT22;51603;49.300;8.880;2022-10-22T02:15:42;13.10;99.90
65036;DHT22;51603;49.300;8.880;2022-10-22T02:18:09;13.10;99.90
65036;DHT22;51603;49.300;8.880;2022-10-22T02:20:37;13.20;99.90
65036;DHT22;51603;49.300;8.880;2022-10-22T02:23:05;13.20;99.90
65036;DHT22;51603;49.300;8.880;2022-10-22T02:25:33;13.20;99.90
65036;DHT22;51603;49.300;8.880;2022-10-22T02:28:19;13.20;99.90
65036;DHT22;51603;49.300;8.880;2022-10-22T02:30:52;13.30;99.90
65036;DHT22;51603;49.300;8.880;2022-10-22T02:33:23;13.30;99.90
65036;DHT22;51603;49.300;8.880;2022-10-22T02:35:51;13.30;99.90
65036;DHT22;51603;49.300;8.880;2022-10-22T02:38:18;13.40;99.90
65036;DHT22;51603;49.300;8.880;2022-10-22T02:40:44;13.50;99.90
65036;DHT22;51603;49.300;8.880;2022-10-22T02:43:10;13.50;99.90
65036;DHT22;51603;49.300;8.880;2022-10-22T02:45:36;13.60;99.90
65036;DHT22;51603;49.300;8.880;2022-10-22T02:48:02;13.60;99.90
65036;DHT22;51603;49.300;8.880;2022-10-22T02:50:28;13.60;99.90
65036;DHT22;51603;49.300;8.880;2022-10-22T02:52:54;13.60;99.90
65036;DHT22;51603;49.300;8.880;2022-10-22T02:55:19;13.60;99.90
65036;DHT22;51603;49.300;8.880;2022-10-22T02:57:45;13.60;99.90
65036;DHT22;51603;49.300;8.880;2022-10-22T03:00:11;13.60;99.90
65036;DHT22;51603;49.300;8.880;2022-10-22T03:02:36;13.50;99.90
65036;DHT22;51603;49.300;8.880;2022-10-22T03:05:02;13.60;99.90
65036;DHT22;51603;49.300;8.880;2022-10-22T03:07:28;13.50;99.90
65036;DHT22;51603;49.300;8.880;2022-10-22T03:09:53;13.50;99.90
65036;DHT22;51603;49.300;8.880;2022-10-22T03:12:19;13.50;99.90
65036;DHT22;51603;49.300;8.880;2022-10-22T03:14:44;13.50;99.90
65036;DHT22;51603;49.300;8.880;2022-10-22T03:17:10;13.40;99.90
65036;DHT22;51603;49.300;8.880;2022-10-22T03:19:35;13.30;99.90
65036;DHT22;51603;49.300;8.880;2022-10-22T03:22:07;13.30;99.90
65036;DHT22;51603;49.300;8.880;2022-10-22T03:24:43;13.30;99.90
65036;DHT22;51603;49.300;8.880;2022-10-22T03:27:09;13.20;99.90
65036;DHT22;51603;49.300;8.880;2022-10-22T03:29:37;13.20;99.90
65036;DHT22;51603;49.300;8.880;2022-10-22T03:32:04;13.20;99.90
65036;DHT22;51603;49.300;8.880;2022-10-22T03:34:30;13.20;99.90
65036;DHT22;51603;49.300;8.880;2022-10-22T03:36:58;13.10;99.90
65036;DHT22;51603;49.300;8.880;2022-10-22T03:39:26;13.10;99.90
65036;DHT22;51603;49.300;8.880;2022-10-22T03:41:53;13.10;99.90
65036;DHT22;51603;49.300;8.880;2022-10-22T03:44:20;13.10;99.90
65036;DHT22;51603;49.300;8.880;2022-10-22T03:46:46;13.10;99.90
65036;DHT22;51603;49.300;8.880;2022-10-22T03:49:11;13.00;99.90
65036;DHT22;51603;49.300;8.880;2022-10-22T03:51:37;13.00;99.90
65036;DHT22;51603;49.300;8.880;2022-10-22T03:54:03;12.90;99.90
65036;DHT22;51603;49.300;8.880;2022-10-22T03:56:29;12.90;99.90
65036;DHT22;51603;49.300;8.880;2022-10-22T03:58:56;12.90;99.90
65036;DHT22;51603;49.300;8.880;2022-10-22T04:01:22;12.90;99.90
65036;DHT22;51603;49.300;8.880;2022-10-22T04:03:48;12.90;99.90
65036;DHT22;51603;49.300;8.880;2022-10-22T04:06:14;12.90;99.90
65036;DHT22;51603;49.300;8.880;2022-10-22T04:08:41;12.90;99.90
65036;DHT22;51603;49.300;8.880;2022-10-22T04:11:07;12.80;99.90
65036;DHT22;51603;49.300;8.880;2022-10-22T04:13:33;12.80;99.90
65036;DHT22;51603;49.300;8.880;2022-10-22T04:16:19;12.70;99.90
65036;DHT22;51603;49.300;8.880;2022-10-22T04:18:46;12.70;99.90
65036;DHT22;51603;49.300;8.880;2022-10-22T04:21:14;12.70;99.90
65036;DHT22;51603;49.300;8.880;2022-10-22T04:23:47;12.60;99.90
65036;DHT22;51603;49.300;8.880;2022-10-22T04:26:13;12.50;99.90
65036;DHT22;51603;49.300;8.880;2022-10-22T04:28:39;12.50;99.90
65036;DHT22;51603;49.300;8.880;2022-10-22T04:31:10;12.40;99.90
65036;DHT22;51603;49.300;8.880;2022-10-22T04:33:36;12.40;99.90
65036;DHT22;51603;49.300;8.880;2022-10-22T04:36:10;12.20;99.90
65036;DHT22;51603;49.300;8.880;2022-10-22T04:38:37;12.20;99.90
65036;DHT22;51603;49.300;8.880;2022-10-22T04:41:18;12.20;99.90
65036;DHT22;51603;49.300;8.880;2022-10-22T04:43:44;12.20;99.90
65036;DHT22;51603;49.300;8.880;2022-10-22T04:46:11;12.20;99.90
65036;DHT22;51603;49.300;8.880;2022-10-22T04:48:38;12.10;99.90
65036;DHT22;51603;49.300;8.880;2022-10-22T04:51:05;12.10;99.90
65036;DHT22;51603;49.300;8.880;2022-10-22T04:53:32;12.00;99.90
65036;DHT22;51603;49.300;8.880;2022-10-22T04:56:21;12.00;99.90
65036;DHT22;51603;49.300;8.880;2022-10-22T04:58:52;12.00;99.90
65036;DHT22;51603;49.300;8.880;2022-10-22T05:01:20;11.90;99.90
65036;DHT22;51603;49.300;8.880;2022-10-22T05:03:47;11.90;99.90
65036;DHT22;51603;49.300;8.880;2022-10-22T05:06:13;11.90;99.90
65036;DHT22;51603;49.300;8.880;2022-10-22T05:08:39;11.80;99.90
65036;DHT22;51603;49.300;8.880;2022-10-22T05:11:16;11.80;99.90
65036;DHT22;51603;49.300;8.880;2022-10-22T05:13:42;11.80;99.90
65036;DHT22;51603;49.300;8.880;2022-10-22T05:16:08;11.80;99.90
65036;DHT22;51603;49.300;8.880;2022-10-22T05:18:35;11.70;99.90
65036;DHT22;51603;49.300;8.880;2022-10-22T05:21:02;11.60;99.90
65036;DHT22;51603;49.300;8.880;2022-10-22T05:23:28;11.70;99.90
65036;DHT22;51603;49.300;8.880;2022-10-22T05:25:53;11.70;99.90
65036;DHT22;51603;49.300;8.880;2022-10-22T05:28:19;11.60;99.90
65036;DHT22;51603;49.300;8.880;2022-10-22T05:30:55;11.60;99.90
65036;DHT22;51603;49.300;8.880;2022-10-22T05:33:21;11.70;99.90
65036;DHT22;51603;49.300;8.880;2022-10-22T05:35:48;11.90;99.90
65036;DHT22;51603;49.300;8.880;2022-10-22T05:38:15;12.00;99.90
65036;DHT22;51603;49.300;8.880;2022-10-22T05:40:40;12.10;99.90
65036;DHT22;51603;49.300;8.880;2022-10-22T05:43:06;12.00;99.90
65036;DHT22;51603;49.300;8.880;2022-10-22T05:45:38;11.90;99.90
65036;DHT22;51603;49.300;8.880;2022-10-22T05:48:04;11.80;99.90
65036;DHT22;51603;49.300;8.880;2022-10-22T05:50:30;11.80;99.90
65036;DHT22;51603;49.300;8.880;2022-10-22T05:52:56;11.80;99.90
65036;DHT22;51603;49.300;8.880;2022-10-22T05:55:21;11.70;99.90
65036;DHT22;51603;49.300;8.880;2022-10-22T05:57:47;11.60;99.90
65036;DHT22;51603;49.300;8.880;2022-10-22T06:00:15;11.60;99.90
65036;DHT22;51603;49.300;8.880;2022-10-22T06:02:40;11.60;99.90
65036;DHT22;51603;49.300;8.880;2022-10-22T06:05:06;11.60;99.90
65036;DHT22;51603;49.300;8.880;2022-10-22T06:07:32;11.60;99.90
65036;DHT22;51603;49.300;8.880;2022-10-22T06:09:58;11.60;99.90
65036;DHT22;51603;49.300;8.880;2022-10-22T06:12:24;11.60;99.90
65036;DHT22;51603;49.300;8.880;2022-10-22T06:14:50;11.60;99.90
65036;DHT22;51603;49.300;8.880;2022-10-22T06:17:15;11.60;99.90
65036;DHT22;51603;49.300;8.880;2022-10-22T06:19:41;11.70;99.90
65036;DHT22;51603;49.300;8.880;2022-10-22T06:22:06;11.70;99.90
65036;DHT22;51603;49.300;8.880;2022-10-22T06:24:32;11.80;99.90
65036;DHT22;51603;49.300;8.880;2022-10-22T06:26:58;11.90;99.90
65036;DHT22;51603;49.300;8.880;2022-10-22T06:29:23;12.00;99.90
65036;DHT22;51603;49.300;8.880;2022-10-22T06:31:49;12.00;99.90
65036;DHT22;51603;49.300;8.880;2022-10-22T06:34:15;12.00;99.90
65036;DHT22;51603;49.300;8.880;2022-10-22T06:36:44;12.00;99.90
65036;DHT22;51603;49.300;8.880;2022-10-22T06:39:14;11.90;99.90
65036;DHT22;51603;49.300;8.880;2022-10-22T06:41:40;11.90;99.90
65036;DHT22;51603;49.300;8.880;2022-10-22T06:44:06;11.90;99.90
65036;DHT22;51603;49.300;8.880;2022-10-22T06:46:32;11.90;99.90
65036;DHT22;51603;49.300;8.880;2022-10-22T06:49:00;11.80;99.90
65036;DHT22;51603;49.300;8.880;2022-10-22T06:51:27;11.80;99.90
65036;DHT22;51603;49.300;8.880;2022-10-22T06:53:54;11.80;99.90
65036;DHT22;51603;49.300;8.880;2022-10-22T06:56:21;11.80;99.90
65036;DHT22;51603;49.300;8.880;2022-10-22T06:58:48;11.80;99.90
65036;DHT22;51603;49.300;8.880;2022-10-22T07:01:15;11.90;99.90
65036;DHT22;51603;49.300;8.880;2022-10-22T07:03:41;11.90;99.90
65036;DHT22;51603;49.300;8.880;2022-10-22T07:06:10;11.90;99.90
65036;DHT22;51603;49.300;8.880;2022-10-22T07:08:37;11.70;99.90
65036;DHT22;51603;49.300;8.880;2022-10-22T07:11:24;11.70;99.90
65036;DHT22;51603;49.300;8.880;2022-10-22T07:13:52;11.70;99.90
65036;DHT22;51603;49.300;8.880;2022-10-22T07:16:18;11.80;99.90
65036;DHT22;51603;49.300;8.880;2022-10-22T07:18:44;11.80;99.90
65036;DHT22;51603;49.300;8.880;2022-10-22T07:21:12;11.80;99.90
65036;DHT22;51603;49.300;8.880;2022-10-22T07:23:38;11.90;99.90
65036;DHT22;51603;49.300;8.880;2022-10-22T07:26:05;11.90;99.90
65036;DHT22;51603;49.300;8.880;2022-10-22T07:28:34;11.90;99.90
65036;DHT22;51603;49.300;8.880;2022-10-22T07:31:01;11.90;99.90
65036;DHT22;51603;49.300;8.880;2022-10-22T07:33:26;11.90;99.90
65036;DHT22;51603;49.300;8.880;2022-10-22T07:35:57;11.80;99.90
65036;DHT22;51603;49.300;8.880;2022-10-22T07:38:23;11.90;99.90
65036;DHT22;51603;49.300;8.880;2022-10-22T07:40:49;11.90;99.90
65036;DHT22;51603;49.300;8.880;2022-10-22T07:43:14;11.90;99.90
65036;DHT22;51603;49.300;8.880;2022-10-22T07:45:40;12.00;99.90
65036;DHT22;51603;49.300;8.880;2022-10-22T07:48:06;12.10;99.90
65036;DHT22;51603;49.300;8.880;2022-10-22T07:50:31;12.10;99.90
65036;DHT22;51603;49.300;8.880;2022-10-22T07:52:57;12.30;99.90
65036;DHT22;51603;49.300;8.880;2022-10-22T07:55:22;12.40;99.90
65036;DHT22;51603;49.300;8.880;2022-10-22T07:57:48;12.60;99.90
65036;DHT22;51603;49.300;8.880;2022-10-22T08:00:14;12.70;99.90
65036;DHT22;51603;49.300;8.880;2022-10-22T08:02:40;12.80;99.90
65036;DHT22;51603;49.300;8.880;2022-10-22T08:05:05;12.90;99.90
65036;DHT22;51603;49.300;8.880;2022-10-22T08:07:31;12.90;99.90
65036;DHT22;51603;49.300;8.880;2022-10-22T08:09:57;13.00;99.90
65036;DHT22;51603;49.300;8.880;2022-10-22T08:12:22;13.10;99.90
65036;DHT22;51603;49.300;8.880;2022-10-22T08:14:48;13.20;99.90
65036;DHT22;51603;49.300;8.880;2022-10-22T08:17:14;13.30;99.90
65036;DHT22;51603;49.300;8.880;2022-10-22T08:19:40;13.50;99.90
65036;DHT22;51603;49.300;8.880;2022-10-22T08:22:06;13.60;99.90
65036;DHT22;51603;49.300;8.880;2022-10-22T08:24:31;13.80;99.90
65036;DHT22;51603;49.300;8.880;2022-10-22T08:26:57;14.00;99.90
65036;DHT22;51603;49.300;8.880;2022-10-22T08:29:23;14.10;99.90
65036;DHT22;51603;49.300;8.880;2022-10-22T08:31:49;14.20;99.90
65036;DHT22;51603;49.300;8.880;2022-10-22T08:34:15;14.40;99.90
65036;DHT22;51603;49.300;8.880;2022-10-22T08:36:41;14.50;99.90
65036;DHT22;51603;49.300;8.880;2022-10-22T08:39:06;14.60;99.90
65036;DHT22;51603;49.300;8.880;2022-10-22T08:41:35;14.70;99.90
65036;DHT22;51603;49.300;8.880;2022-10-22T08:44:38;14.80;99.90
65036;DHT22;51603;49.300;8.880;2022-10-22T08:47:21;14.80;99.90
65036;DHT22;51603;49.300;8.880;2022-10-22T08:49:52;14.90;99.90
65036;DHT22;51603;49.300;8.880;2022-10-22T08:52:19;15.00;99.90
65036;DHT22;51603;49.300;8.880;2022-10-22T08:54:56;15.00;99.90
65036;DHT22;51603;49.300;8.880;2022-10-22T09:08:36;15.40;99.90
65036;DHT22;51603;49.300;8.880;2022-10-22T09:13:39;15.60;99.90
65036;DHT22;51603;49.300;8.880;2022-10-22T09:16:29;15.70;99.90
65036;DHT22;51603;49.300;8.880;2022-10-22T09:25:13;16.00;99.90
65036;DHT22;51603;49.300;8.880;2022-10-22T09:27:40;16.20;99.90
65036;DHT22;51603;49.300;8.880;2022-10-22T09:30:09;16.30;99.90
65036;DHT22;51603;49.300;8.880;2022-10-22T09:32:35;16.40;99.90
65036;DHT22;51603;49.300;8.880;2022-10-22T09:35:01;16.40;99.90
65036;DHT22;51603;49.300;8.880;2022-10-22T09:37:28;16.50;99.90
65036;DHT22;51603;49.300;8.880;2022-10-22T09:39:55;16.50;99.90
65036;DHT22;51603;49.300;8.880;2022-10-22T09:42:23;16.40;99.90
65036;DHT22;51603;49.300;8.880;2022-10-22T09:44:54;16.30;99.90
65036;DHT22;51603;49.300;8.880;2022-10-22T09:47:39;16.40;99.90
65036;DHT22;51603;49.300;8.880;2022-10-22T09:50:28;16.50;99.90
65036;DHT22;51603;49.300;8.880;2022-10-22T09:55:57;16.70;99.90
65036;DHT22;51603;49.300;8.880;2022-10-22T09:58:23;16.60;99.90
65036;DHT22;51603;49.300;8.880;2022-10-22T10:00:57;16.60;99.90
65036;DHT22;51603;49.300;8.880;2022-10-22T10:03:26;16.60;99.90
65036;DHT22;51603;49.300;8.880;2022-10-22T10:05:54;16.60;99.90
65036;DHT22;51603;49.300;8.880;2022-10-22T10:08:21;16.70;99.90
65036;DHT22;51603;49.300;8.880;2022-10-22T10:11:05;16.80;99.90
65036;DHT22;51603;49.300;8.880;2022-10-22T10:16:37;17.10;99.90
65036;DHT22;51603;49.300;8.880;2022-10-22T10:19:13;17.20;99.90
65036;DHT22;51603;49.300;8.880;2022-10-22T10:24:46;17.50;99.90
65036;DHT22;51603;49.300;8.880;2022-10-22T10:35:29;17.90;99.90
65036;DHT22;51603;49.300;8.880;2022-10-22T10:40:52;18.10;99.90
65036;DHT22;51603;49.300;8.880;2022-10-22T10:46:19;18.30;99.90
65036;DHT22;51603;49.300;8.880;2022-10-22T10:51:37;18.50;99.90
65036;DHT22;51603;49.300;8.880;2022-10-22T10:57:05;18.40;99.90
65036;DHT22;51603;49.300;8.880;2022-10-22T11:07:19;18.70;99.90
65036;DHT22;51603;49.300;8.880;2022-10-22T11:09:56;18.70;99.90
65036;DHT22;51603;49.300;8.880;2022-10-22T11:12:33;18.90;99.90
65036;DHT22;51603;49.300;8.880;2022-10-22T11:17:50;19.10;99.90
65036;DHT22;51603;49.300;8.880;2022-10-22T11:20:18;19.10;99.90
65036;DHT22;51603;49.300;8.880;2022-10-22T11:22:50;19.10;99.90
65036;DHT22;51603;49.300;8.880;2022-10-22T11:25:27;19.00;99.90
65036;DHT22;51603;49.300;8.880;2022-10-22T11:28:01;19.10;99.90
65036;DHT22;51603;49.300;8.880;2022-10-22T11:30:31;19.10;99.90
65036;DHT22;51603;49.300;8.880;2022-10-22T11:33:01;19.30;99.90
65036;DHT22;51603;49.300;8.880;2022-10-22T11:35:30;19.30;99.90
65036;DHT22;51603;49.300;8.880;2022-10-22T11:37:58;19.40;99.90
65036;DHT22;51603;49.300;8.880;2022-10-22T11:40:34;19.50;99.90
65036;DHT22;51603;49.300;8.880;2022-10-22T11:43:10;19.60;99.90
65036;DHT22;51603;49.300;8.880;2022-10-22T11:45:49;19.40;99.90
65036;DHT22;51603;49.300;8.880;2022-10-22T11:48:26;19.40;99.90
65036;DHT22;51603;49.300;8.880;2022-10-22T11:51:00;19.40;99.90
65036;DHT22;51603;49.300;8.880;2022-10-22T11:53:32;19.50;99.90
65036;DHT22;51603;49.300;8.880;2022-10-22T12:16:35;19.50;99.90
65036;DHT22;51603;49.300;8.880;2022-10-22T12:21:37;19.50;99.90
65036;DHT22;51603;49.300;8.880;2022-10-22T12:24:03;19.70;99.90
65036;DHT22;51603;49.300;8.880;2022-10-22T12:26:30;19.50;99.90
65036;DHT22;51603;49.300;8.880;2022-10-22T12:29:01;19.60;99.90
65036;DHT22;51603;49.300;8.880;2022-10-22T12:31:27;19.70;99.90
65036;DHT22;51603;49.300;8.880;2022-10-22T12:33:59;19.90;99.90
65036;DHT22;51603;49.300;8.880;2022-10-22T12:36:26;20.00;99.90
65036;DHT22;51603;49.300;8.880;2022-10-22T12:38:52;20.00;99.90
65036;DHT22;51603;49.300;8.880;2022-10-22T12:41:18;20.10;99.90
65036;DHT22;51603;49.300;8.880;2022-10-22T12:43:44;20.20;99.90
65036;DHT22;51603;49.300;8.880;2022-10-22T12:46:14;20.30;99.90
65036;DHT22;51603;49.300;8.880;2022-10-22T12:48:42;20.30;99.90
65036;DHT22;51603;49.300;8.880;2022-10-22T12:51:17;20.20;99.90
65036;DHT22;51603;49.300;8.880;2022-10-22T12:53:52;20.00;99.90
65036;DHT22;51603;49.300;8.880;2022-10-22T12:56:36;19.90;99.90
65036;DHT22;51603;49.300;8.880;2022-10-22T12:59:17;19.80;99.90
65036;DHT22;51603;49.300;8.880;2022-10-22T13:01:44;19.80;99.90
65036;DHT22;51603;49.300;8.880;2022-10-22T13:06:50;19.70;99.90
65036;DHT22;51603;49.300;8.880;2022-10-22T13:09:23;19.60;99.90
65036;DHT22;51603;49.300;8.880;2022-10-22T13:12:01;19.50;99.90
65036;DHT22;51603;49.300;8.880;2022-10-22T13:14:36;19.50;99.90
65036;DHT22;51603;49.300;8.880;2022-10-22T13:17:13;19.60;99.90
65036;DHT22;51603;49.300;8.880;2022-10-22T13:24:54;19.60;99.90
65036;DHT22;51603;49.300;8.880;2022-10-22T13:27:22;19.50;99.90
65036;DHT22;51603;49.300;8.880;2022-10-22T13:29:48;19.50;99.90
65036;DHT22;51603;49.300;8.880;2022-10-22T13:32:33;19.50;99.90
65036;DHT22;51603;49.300;8.880;2022-10-22T13:35:00;19.60;99.90
65036;DHT22;51603;49.300;8.880;2022-10-22T13:37:28;19.70;99.90
65036;DHT22;51603;49.300;8.880;2022-10-22T13:39:54;19.90;99.90
65036;DHT22;51603;49.300;8.880;2022-10-22T13:42:20;20.10;99.90
65036;DHT22;51603;49.300;8.880;2022-10-22T13:44:45;20.20;99.90
65036;DHT22;51603;49.300;8.880;2022-10-22T13:47:26;20.10;99.90
65036;DHT22;51603;49.300;8.880;2022-10-22T13:49:54;20.10;99.90
65036;DHT22;51603;49.300;8.880;2022-10-22T13:52:49;20.20;99.90
65036;DHT22;51603;49.300;8.880;2022-10-22T13:57:39;19.90;99.90
65036;DHT22;51603;49.300;8.880;2022-10-22T14:00:05;19.70;99.90
65036;DHT22;51603;49.300;8.880;2022-10-22T14:02:31;19.50;99.90
65036;DHT22;51603;49.300;8.880;2022-10-22T14:04:56;19.40;99.90
65036;DHT22;51603;49.300;8.880;2022-10-22T14:07:27;19.30;99.90
65036;DHT22;51603;49.300;8.880;2022-10-22T14:09:53;19.30;99.90
65036;DHT22;51603;49.300;8.880;2022-10-22T14:12:18;19.20;99.90
65036;DHT22;51603;49.300;8.880;2022-10-22T14:14:44;19.20;99.90
65036;DHT22;51603;49.300;8.880;2022-10-22T14:17:12;19.10;99.90
65036;DHT22;51603;49.300;8.880;2022-10-22T14:19:44;19.00;99.90
65036;DHT22;51603;49.300;8.880;2022-10-22T14:22:15;19.00;99.90
65036;DHT22;51603;49.300;8.880;2022-10-22T14:24:41;18.90;99.90
65036;DHT22;51603;49.300;8.880;2022-10-22T14:27:09;18.90;99.90
65036;DHT22;51603;49.300;8.880;2022-10-22T14:29:35;18.90;99.90
65036;DHT22;51603;49.300;8.880;2022-10-22T14:32:01;18.80;99.90
65036;DHT22;51603;49.300;8.880;2022-10-22T14:34:26;18.80;99.90
65036;DHT22;51603;49.300;8.880;2022-10-22T14:36:52;18.80;99.90
65036;DHT22;51603;49.300;8.880;2022-10-22T14:39:17;18.80;99.90
65036;DHT22;51603;49.300;8.880;2022-10-22T14:41:43;18.70;99.90
65036;DHT22;51603;49.300;8.880;2022-10-22T14:44:11;18.70;99.90
65036;DHT22;51603;49.300;8.880;2022-10-22T14:46:38;18.70;99.90
65036;DHT22;51603;49.300;8.880;2022-10-22T14:49:04;18.60;99.90
65036;DHT22;51603;49.300;8.880;2022-10-22T14:51:30;18.50;99.90
65036;DHT22;51603;49.300;8.880;2022-10-22T14:53:55;18.40;99.90
65036;DHT22;51603;49.300;8.880;2022-10-22T14:56:21;18.40;99.90
65036;DHT22;51603;49.300;8.880;2022-10-22T14:58:47;18.30;99.90
65036;DHT22;51603;49.300;8.880;2022-10-22T15:01:13;18.30;99.90
65036;DHT22;51603;49.300;8.880;2022-10-22T15:03:38;18.30;99.90
65036;DHT22;51603;49.300;8.880;2022-10-22T15:06:04;18.40;99.90
65036;DHT22;51603;49.300;8.880;2022-10-22T15:08:30;18.40;99.90
65036;DHT22;51603;49.300;8.880;2022-10-22T15:11:00;18.40;99.90
65036;DHT22;51603;49.300;8.880;2022-10-22T15:13:27;18.40;99.90
65036;DHT22;51603;49.300;8.880;2022-10-22T15:15:53;18.40;99.90
65036;DHT22;51603;49.300;8.880;2022-10-22T15:18:19;18.50;99.90
65036;DHT22;51603;49.300;8.880;2022-10-22T15:20:44;18.70;99.90
65036;DHT22;51603;49.300;8.880;2022-10-22T15:23:10;18.80;99.90
65036;DHT22;51603;49.300;8.880;2022-10-22T15:25:35;19.00;99.90
65036;DHT22;51603;49.300;8.880;2022-10-22T15:28:01;19.10;99.90
65036;DHT22;51603;49.300;8.880;2022-10-22T15:30:27;19.20;99.90
65036;DHT22;51603;49.300;8.880;2022-10-22T15:32:52;19.20;99.90
65036;DHT22;51603;49.300;8.880;2022-10-22T15:35:17;19.00;99.90
65036;DHT22;51603;49.300;8.880;2022-10-22T15:37:43;18.90;99.90
65036;DHT22;51603;49.300;8.880;2022-10-22T15:40:09;18.80;99.90
65036;DHT22;51603;49.300;8.880;2022-10-22T15:42:34;18.60;99.90
65036;DHT22;51603;49.300;8.880;2022-10-22T15:45:00;18.50;99.90
65036;DHT22;51603;49.300;8.880;2022-10-22T15:47:26;18.30;99.90
65036;DHT22;51603;49.300;8.880;2022-10-22T15:49:54;18.10;99.90
65036;DHT22;51603;49.300;8.880;2022-10-22T15:52:19;18.00;99.90
65036;DHT22;51603;49.300;8.880;2022-10-22T15:54:48;17.80;99.90
65036;DHT22;51603;49.300;8.880;2022-10-22T15:57:13;17.70;99.90
65036;DHT22;51603;49.300;8.880;2022-10-22T15:59:39;17.50;99.90
65036;DHT22;51603;49.300;8.880;2022-10-22T16:02:04;17.40;99.90
65036;DHT22;51603;49.300;8.880;2022-10-22T16:04:31;17.30;99.90
65036;DHT22;51603;49.300;8.880;2022-10-22T16:06:57;17.10;99.90
65036;DHT22;51603;49.300;8.880;2022-10-22T16:09:25;16.90;99.90
65036;DHT22;51603;49.300;8.880;2022-10-22T16:11:52;16.80;99.90
65036;DHT22;51603;49.300;8.880;2022-10-22T16:14:20;16.60;99.90
65036;DHT22;51603;49.300;8.880;2022-10-22T16:16:48;16.60;99.90
65036;DHT22;51603;49.300;8.880;2022-10-22T16:19:16;16.50;99.90
65036;DHT22;51603;49.300;8.880;2022-10-22T16:21:42;16.40;99.90
65036;DHT22;51603;49.300;8.880;2022-10-22T16:24:10;16.30;99.90
65036;DHT22;51603;49.300;8.880;2022-10-22T16:26:35;16.20;99.90
65036;DHT22;51603;49.300;8.880;2022-10-22T16:29:01;16.10;99.90
65036;DHT22;51603;49.300;8.880;2022-10-22T16:31:27;16.10;99.90
65036;DHT22;51603;49.300;8.880;2022-10-22T16:33:52;16.00;99.90
65036;DHT22;51603;49.300;8.880;2022-10-22T16:36:20;16.00;99.90
65036;DHT22;51603;49.300;8.880;2022-10-22T16:38:46;15.90;99.90
65036;DHT22;51603;49.300;8.880;2022-10-22T16:41:20;15.80;99.90
65036;DHT22;51603;49.300;8.880;2022-10-22T16:43:48;15.80;99.90
65036;DHT22;51603;49.300;8.880;2022-10-22T16:46:18;15.70;99.90
65036;DHT22;51603;49.300;8.880;2022-10-22T16:48:49;15.60;99.90
65036;DHT22;51603;49.300;8.880;2022-10-22T16:51:17;15.50;99.90
65036;DHT22;51603;49.300;8.880;2022-10-22T16:53:43;15.40;99.90
65036;DHT22;51603;49.300;8.880;2022-10-22T16:56:13;15.30;99.90
65036;DHT22;51603;49.300;8.880;2022-10-22T16:58:44;15.30;99.90
65036;DHT22;51603;49.300;8.880;2022-10-22T17:01:10;15.20;99.90
65036;DHT22;51603;49.300;8.880;2022-10-22T17:03:36;15.10;99.90
65036;DHT22;51603;49.300;8.880;2022-10-22T17:06:03;15.10;99.90
65036;DHT22;51603;49.300;8.880;2022-10-22T17:08:30;15.00;99.90
65036;DHT22;51603;49.300;8.880;2022-10-22T17:10:56;14.90;99.90
65036;DHT22;51603;49.300;8.880;2022-10-22T17:13:21;14.90;99.90
65036;DHT22;51603;49.300;8.880;2022-10-22T17:15:47;14.80;99.90
65036;DHT22;51603;49.300;8.880;2022-10-22T17:18:13;14.80;99.90
65036;DHT22;51603;49.300;8.880;2022-10-22T17:20:42;14.80;99.90
65036;DHT22;51603;49.300;8.880;2022-10-22T17:23:08;14.70;99.90
65036;DHT22;51603;49.300;8.880;2022-10-22T17:25:43;14.60;99.90